Terminal Aerodrome Forecast
Issued by NWS

Home | Current Version | Previous Version | Text Only | Print | Product List | Glossary Off
Versions: 1 2 3 4 5 6 7 8 9 10 11 12 13 14 15 16 17 18 19 20 21 22 23 24 25 26 27 28 29 30 31 32 33 34 35 36 37 38 39

000
FTUS43 KLOT 261800 AAA
TAFMDW
TAF AMD
KMDW 261857Z 2619/2718 18006KT 4SM -SN BR SCT015 OVC040
      TEMPO 2621/2624 2SM -SN BR OVC015
     FM270000 15007KT 6SM -SN BR SCT010 OVC025
     FM270500 08004KT 6SM BR OVC008
     FM271000 03005KT P6SM OVC010
     FM271600 05007KT P6SM OVC015=

USA.gov is the U.S. government's official web portal to all federal, state and local government web resources and services.